createdAt,value
2023-05-05T00:00:32.763Z,17.49
2023-05-05T00:01:25.876Z,17.54
2023-05-05T00:02:26.334Z,17.55
2023-05-05T00:03:32.927Z,17.57
2023-05-05T00:04:25.850Z,17.60
2023-05-05T00:05:32.807Z,17.65
2023-05-05T00:06:25.814Z,17.53
2023-05-05T00:07:32.326Z,17.47
2023-05-05T00:10:18.897Z,17.51
2023-05-05T00:11:29.922Z,17.35
2023-05-05T00:12:19.907Z,17.25
2023-05-05T00:13:19.904Z,17.25
2023-05-05T00:14:19.860Z,17.28
2023-05-05T00:15:19.854Z,17.32
2023-05-05T00:16:20.426Z,17.30
2023-05-05T00:17:20.389Z,17.25
2023-05-05T00:18:19.906Z,17.22
2023-05-05T00:19:19.825Z,17.24
2023-05-05T00:20:19.816Z,17.22
2023-05-05T00:21:19.820Z,17.22
2023-05-05T00:22:30.387Z,17.18
2023-05-05T00:23:19.803Z,17.10
2023-05-05T00:24:19.772Z,17.14
2023-05-05T00:25:19.751Z,17.17
2023-05-05T00:26:20.751Z,17.24
2023-05-05T00:27:19.723Z,17.28
2023-05-05T00:28:19.708Z,17.27
2023-05-05T00:29:26.329Z,17.24
2023-05-05T00:30:26.394Z,17.21
2023-05-05T00:31:19.738Z,17.20
2023-05-05T00:32:25.945Z,17.22
2023-05-05T00:33:19.706Z,17.21
2023-05-05T00:34:19.653Z,17.24
2023-05-05T00:35:19.662Z,17.25
2023-05-05T00:36:19.902Z,17.32
2023-05-05T00:37:19.619Z,17.33
2023-05-05T00:38:29.415Z,17.38
2023-05-05T00:39:19.640Z,17.36
2023-05-05T00:40:26.412Z,17.38
2023-05-05T00:41:19.630Z,17.38
2023-05-05T00:42:19.566Z,17.42
2023-05-05T00:43:27.945Z,17.45
2023-05-05T00:44:29.437Z,17.47
2023-05-05T00:45:19.567Z,17.49
2023-05-05T00:46:30.494Z,17.53
2023-05-05T00:47:19.954Z,17.54
2023-05-05T00:48:19.496Z,17.57
2023-05-05T00:49:29.571Z,17.60
2023-05-05T00:50:19.487Z,17.62
2023-05-05T00:51:29.029Z,17.65
2023-05-05T00:52:19.462Z,17.68
2023-05-05T00:53:19.510Z,17.68
2023-05-05T00:54:25.467Z,17.68
2023-05-05T00:55:19.446Z,17.70
2023-05-05T00:56:19.425Z,17.70
2023-05-05T00:57:26.537Z,17.65
2023-05-05T00:58:19.566Z,17.65
2023-05-05T00:59:27.061Z,17.60
2023-05-05T01:00:19.379Z,17.58
2023-05-05T01:01:28.439Z,17.57
2023-05-05T01:02:27.648Z,17.57
2023-05-05T01:03:19.414Z,17.57
2023-05-05T01:04:19.340Z,17.57
2023-05-05T01:05:26.227Z,17.57
2023-05-05T01:06:26.157Z,17.54
2023-05-05T01:07:19.305Z,17.54
2023-05-05T01:08:19.331Z,17.42
2023-05-05T01:09:19.690Z,17.40
2023-05-05T01:10:20.684Z,17.40
2023-05-05T01:11:32.215Z,17.38
2023-05-05T01:12:19.234Z,17.35
2023-05-05T01:13:26.222Z,17.33
2023-05-05T01:14:19.244Z,17.24
2023-05-05T01:15:19.806Z,17.21
2023-05-05T01:16:19.233Z,17.20
2023-05-05T01:17:25.219Z,17.18
2023-05-05T01:18:19.250Z,17.18
2023-05-05T01:19:19.241Z,17.20
2023-05-05T01:20:25.757Z,17.21
2023-05-05T01:21:25.755Z,17.20
2023-05-05T01:22:19.129Z,17.20
2023-05-05T01:23:25.285Z,17.18
2023-05-05T01:24:19.125Z,17.18
2023-05-05T01:25:25.810Z,17.10
2023-05-05T01:26:19.096Z,17.06
2023-05-05T01:27:19.106Z,17.00
2023-05-05T01:28:25.316Z,16.99
2023-05-05T01:29:25.944Z,16.99
2023-05-05T01:30:25.885Z,16.99
2023-05-05T01:31:19.072Z,16.98
2023-05-05T01:32:19.101Z,16.98
2023-05-05T01:33:19.032Z,16.96
2023-05-05T01:34:18.995Z,16.92
2023-05-05T01:35:19.002Z,16.95
2023-05-05T01:36:19.369Z,16.96
2023-05-05T01:37:19.390Z,16.95
2023-05-05T01:38:18.976Z,16.90
2023-05-05T01:39:18.968Z,16.82
2023-05-05T01:40:18.945Z,16.75
2023-05-05T01:41:19.007Z,16.70
2023-05-05T01:42:18.972Z,16.65
2023-05-05T01:43:25.939Z,16.63
2023-05-05T01:44:18.914Z,16.65
2023-05-05T01:45:18.883Z,16.66
2023-05-05T01:46:18.959Z,16.70
2023-05-05T01:47:18.916Z,16.69
2023-05-05T01:48:18.874Z,16.69
2023-05-05T01:49:18.837Z,16.70
2023-05-05T01:50:25.426Z,16.69
2023-05-05T01:51:18.833Z,16.72
2023-05-05T01:52:18.813Z,16.69
2023-05-05T01:53:18.931Z,16.69
2023-05-05T01:54:18.797Z,16.69
2023-05-05T01:55:18.794Z,16.70
2023-05-05T01:56:25.466Z,16.69
2023-05-05T01:57:25.448Z,16.65
2023-05-05T01:58:18.733Z,16.63
2023-05-05T01:59:18.762Z,16.60
2023-05-05T02:00:18.964Z,16.60
2023-05-05T02:01:18.750Z,16.55
2023-05-05T02:02:18.714Z,16.55
2023-05-05T02:03:25.598Z,16.55
2023-05-05T02:04:25.549Z,16.57
2023-05-05T02:05:25.489Z,16.55
2023-05-05T02:06:18.641Z,16.51
2023-05-05T02:07:25.549Z,16.47
2023-05-05T02:08:19.015Z,16.45
2023-05-05T02:09:29.571Z,16.44
2023-05-05T02:10:25.536Z,16.45
2023-05-05T02:11:18.619Z,16.45
2023-05-05T02:12:18.584Z,16.45
2023-05-05T02:13:18.631Z,16.45
2023-05-05T02:14:19.057Z,16.48
2023-05-05T02:15:24.581Z,16.45
2023-05-05T02:16:18.644Z,16.42
2023-05-05T02:17:18.543Z,16.42
2023-05-05T02:18:24.541Z,16.44
2023-05-05T02:19:24.545Z,16.44
2023-05-05T02:20:29.619Z,16.44
2023-05-05T02:21:18.496Z,16.45
2023-05-05T02:22:18.503Z,16.44
2023-05-05T02:23:18.462Z,16.45
2023-05-05T02:24:18.487Z,16.37
2023-05-05T02:25:18.505Z,16.34
2023-05-05T02:26:18.453Z,16.37
2023-05-05T02:27:29.623Z,16.36
2023-05-05T02:28:18.442Z,16.34
2023-05-05T02:29:25.285Z,16.33
2023-05-05T02:32:06.456Z,16.32
2023-05-05T02:33:15.460Z,16.27
2023-05-05T02:34:07.023Z,16.29
2023-05-05T02:35:07.034Z,16.26
2023-05-05T02:36:21.963Z,16.25
2023-05-05T02:37:06.990Z,16.26
2023-05-05T02:38:07.003Z,16.25
2023-05-05T02:39:06.990Z,16.23
2023-05-05T02:40:07.157Z,16.18
2023-05-05T02:41:14.985Z,16.16
2023-05-05T02:42:06.950Z,16.13
2023-05-05T02:43:07.010Z,16.11
2023-05-05T02:44:15.528Z,16.07
2023-05-05T02:45:13.526Z,16.07
2023-05-05T02:46:13.613Z,16.06
2023-05-05T02:47:06.925Z,16.04
2023-05-05T02:48:07.078Z,16.01
2023-05-05T02:49:06.865Z,15.98
2023-05-05T02:50:07.136Z,15.93
2023-05-05T02:51:06.884Z,15.92
2023-05-05T02:52:13.551Z,15.85
2023-05-05T02:53:06.845Z,15.85
2023-05-05T02:54:13.597Z,15.84
2023-05-05T02:55:06.816Z,15.85
2023-05-05T02:56:06.798Z,15.86
2023-05-05T02:57:06.797Z,15.85
2023-05-05T02:58:07.114Z,15.85
2023-05-05T02:59:06.780Z,15.86
2023-05-05T03:00:06.948Z,15.88
2023-05-05T03:01:06.774Z,15.86
2023-05-05T03:02:06.760Z,15.84
2023-05-05T03:03:06.817Z,15.77
2023-05-05T03:04:06.743Z,15.76
2023-05-05T03:05:06.702Z,15.74
2023-05-05T03:06:06.721Z,15.76
2023-05-05T03:07:06.707Z,15.78
2023-05-05T03:09:26.389Z,15.86
2023-05-05T03:10:27.390Z,15.86
2023-05-05T03:11:34.132Z,15.86
2023-05-05T03:12:27.360Z,15.88
2023-05-05T03:13:33.353Z,15.85
2023-05-05T03:14:27.358Z,15.84
2023-05-05T03:15:27.320Z,15.78
2023-05-05T03:16:27.373Z,15.80
2023-05-05T03:17:27.393Z,15.77
2023-05-05T03:18:27.306Z,15.77
2023-05-05T03:19:27.301Z,15.78
2023-05-05T03:20:27.323Z,15.76
2023-05-05T03:21:27.257Z,15.71
2023-05-05T03:22:27.272Z,15.68
2023-05-05T03:23:34.161Z,15.66
2023-05-05T03:24:28.262Z,15.64
2023-05-05T03:25:27.213Z,15.64
2023-05-05T03:26:27.203Z,15.60
2023-05-05T03:27:27.228Z,15.62
2023-05-05T03:28:34.178Z,15.62
2023-05-05T03:29:27.173Z,15.64
2023-05-05T03:30:27.182Z,15.64
2023-05-05T03:31:34.249Z,15.60
2023-05-05T03:32:33.741Z,15.58
2023-05-05T03:33:27.146Z,15.59
2023-05-05T03:34:27.122Z,15.59
2023-05-05T03:35:27.202Z,15.62
2023-05-05T03:36:29.016Z,15.62
2023-05-05T03:37:27.135Z,15.62
2023-05-05T03:38:36.734Z,15.60
2023-05-05T03:39:27.206Z,15.62
2023-05-05T03:40:43.692Z,15.62
2023-05-05T03:41:27.073Z,15.62
2023-05-05T03:42:27.032Z,15.56
2023-05-05T03:43:27.032Z,15.51
2023-05-05T03:44:36.257Z,15.49
2023-05-05T03:45:27.187Z,15.41
2023-05-05T03:46:27.002Z,15.40
2023-05-05T03:47:27.039Z,15.43
2023-05-05T03:48:26.966Z,15.43
2023-05-05T03:49:27.009Z,15.48
2023-05-05T03:50:33.802Z,15.48
2023-05-05T03:51:26.949Z,15.51
2023-05-05T03:52:26.921Z,15.48
2023-05-05T03:53:26.961Z,15.48
2023-05-05T03:54:27.302Z,15.48
2023-05-05T03:55:26.921Z,15.51
2023-05-05T03:56:33.801Z,15.46
2023-05-05T03:57:27.325Z,15.46
2023-05-05T03:58:32.984Z,15.46
2023-05-05T03:59:26.862Z,15.48
2023-05-05T04:00:26.859Z,15.48
2023-05-05T04:01:26.862Z,15.49
2023-05-05T04:02:27.025Z,15.48
2023-05-05T04:03:27.018Z,15.48
2023-05-05T04:04:26.884Z,15.49
2023-05-05T04:05:26.783Z,15.48
2023-05-05T04:06:26.805Z,15.49
2023-05-05T04:07:27.426Z,15.49
2023-05-05T04:08:26.786Z,15.51
2023-05-05T04:09:26.756Z,15.51
2023-05-05T04:10:26.749Z,15.53
2023-05-05T04:11:26.733Z,15.51
2023-05-05T04:12:26.723Z,15.48
2023-05-05T04:13:26.726Z,15.48
2023-05-05T04:14:26.750Z,15.46
2023-05-05T04:15:26.696Z,15.43
2023-05-05T04:16:26.890Z,15.43
2023-05-05T04:17:26.852Z,15.43
2023-05-05T04:18:33.352Z,15.41
2023-05-05T04:19:26.657Z,15.40
2023-05-05T04:20:26.653Z,15.40
2023-05-05T04:21:26.862Z,15.43
2023-05-05T04:23:58.971Z,15.41
2023-05-05T04:24:59.941Z,15.43
2023-05-05T04:25:59.944Z,15.41
2023-05-05T04:28:15.525Z,15.40
2023-05-05T04:29:16.270Z,15.41
2023-05-05T04:30:16.266Z,15.40
2023-05-05T04:31:16.332Z,15.41
2023-05-05T04:32:16.272Z,15.46
2023-05-05T04:33:16.218Z,15.48
2023-05-05T04:34:16.229Z,15.49
2023-05-05T04:35:16.258Z,15.52
2023-05-05T04:36:16.225Z,15.53
2023-05-05T04:37:16.214Z,15.56
2023-05-05T04:38:16.609Z,15.60
2023-05-05T04:40:27.070Z,15.64
2023-05-05T04:41:30.034Z,15.66
2023-05-05T04:42:28.058Z,15.68
2023-05-05T04:43:37.820Z,15.70
2023-05-05T04:44:28.033Z,15.74
2023-05-05T04:45:28.041Z,15.80
2023-05-05T04:46:34.971Z,15.84
2023-05-05T04:47:28.388Z,15.85
2023-05-05T04:48:34.847Z,15.85
2023-05-05T04:49:27.977Z,15.85
2023-05-05T04:50:27.978Z,15.85
2023-05-05T04:51:34.879Z,15.78
2023-05-05T04:54:43.858Z,15.84
2023-05-05T04:55:44.857Z,15.88
2023-05-05T04:56:44.840Z,15.88
2023-05-05T04:57:44.865Z,15.88
2023-05-05T04:58:44.846Z,15.81
2023-05-05T04:59:44.824Z,15.84
2023-05-05T05:02:31.037Z,15.98
2023-05-05T05:04:47.318Z,15.95
2023-05-05T05:05:54.296Z,15.98
2023-05-05T05:06:48.429Z,16.01
2023-05-05T05:07:48.312Z,16.03
2023-05-05T05:08:48.270Z,16.10
2023-05-05T05:09:48.277Z,16.17
2023-05-05T05:10:48.247Z,16.22
2023-05-05T05:11:56.589Z,16.26
2023-05-05T05:12:48.279Z,16.30
2023-05-05T05:13:48.239Z,16.37
2023-05-05T05:17:07.680Z,16.52
2023-05-05T05:18:08.639Z,16.54
2023-05-05T05:19:08.641Z,16.55
2023-05-05T05:20:08.766Z,16.57
2023-05-05T05:21:16.859Z,16.60
2023-05-05T05:22:08.624Z,16.67
2023-05-05T05:23:08.852Z,16.70
2023-05-05T05:24:19.870Z,16.77
2023-05-05T05:25:08.609Z,16.82
2023-05-05T05:26:08.899Z,16.85
2023-05-05T05:27:16.107Z,16.87
2023-05-05T05:28:10.550Z,16.85
2023-05-05T05:29:08.752Z,16.88
2023-05-05T05:30:08.691Z,16.91
2023-05-05T05:31:09.025Z,16.85
2023-05-05T05:32:09.113Z,16.88
2023-05-05T05:33:09.330Z,16.96
2023-05-05T05:34:09.364Z,16.99
2023-05-05T05:35:08.924Z,16.96
2023-05-05T05:36:08.472Z,16.95
2023-05-05T05:37:08.591Z,16.92
2023-05-05T05:38:08.504Z,16.91
2023-05-05T05:39:08.425Z,16.95
2023-05-05T05:40:08.613Z,16.95
2023-05-05T05:41:08.406Z,16.98
2023-05-05T05:42:08.435Z,17.05
2023-05-05T05:43:08.901Z,17.09
2023-05-05T05:44:10.116Z,17.05
2023-05-05T05:45:08.817Z,17.09
2023-05-05T05:46:23.263Z,17.14
2023-05-05T05:47:09.197Z,17.17
2023-05-05T05:48:10.758Z,17.24
2023-05-05T05:49:47.664Z,17.27
2023-05-05T05:50:25.446Z,17.20
2023-05-05T05:52:04.671Z,17.12
2023-05-05T05:55:08.743Z,17.40
2023-05-05T05:56:14.597Z,17.46
2023-05-05T06:02:47.414Z,17.45
2023-05-05T06:04:00.960Z,17.46
2023-05-05T06:04:47.315Z,17.53
2023-05-05T06:08:56.260Z,17.49
2023-05-05T06:09:03.856Z,17.68
2023-05-05T06:10:14.530Z,17.65
2023-05-05T06:11:01.649Z,17.74
2023-05-05T06:12:02.647Z,17.80
2023-05-05T06:13:03.491Z,17.91
2023-05-05T06:14:09.416Z,17.96
2023-05-05T06:15:05.453Z,17.91
2023-05-05T06:16:40.155Z,17.81
2023-05-05T06:17:49.351Z,17.84
2023-05-05T06:18:02.393Z,17.80
2023-05-05T06:19:11.845Z,17.87
2023-05-05T06:20:01.605Z,17.96
2023-05-05T06:26:56.277Z,18.20
2023-05-05T06:27:55.422Z,18.32
2023-05-05T06:28:55.397Z,18.38
2023-05-05T06:29:56.444Z,18.44
2023-05-05T06:30:56.245Z,18.51
2023-05-05T06:32:03.820Z,18.62
2023-05-05T06:32:55.432Z,18.71
2023-05-05T06:33:56.218Z,18.74
2023-05-05T07:26:42.734Z,19.92
2023-05-05T07:28:21.606Z,19.87
2023-05-05T07:35:59.858Z,20.23
2023-05-05T07:36:26.202Z,20.31
2023-05-05T07:37:12.389Z,20.35
2023-05-05T07:38:18.389Z,20.46
2023-05-05T07:39:09.399Z,20.50
2023-05-05T07:40:13.130Z,20.40
2023-05-05T07:41:17.866Z,20.02
2023-05-05T07:42:12.544Z,20.07
2023-05-05T07:43:18.758Z,20.16
2023-05-05T08:01:09.870Z,19.65
2023-05-05T08:05:31.397Z,19.65
2023-05-05T08:06:09.970Z,19.64
2023-05-05T08:07:06.952Z,19.76
2023-05-05T08:07:41.853Z,19.85
2023-05-05T08:08:43.051Z,19.83
2023-05-05T08:09:41.513Z,19.85
2023-05-05T08:10:51.233Z,19.94
2023-05-05T08:11:46.652Z,19.87
2023-05-05T08:13:01.424Z,19.86
2023-05-05T08:13:47.248Z,19.95
2023-05-05T08:14:49.523Z,20.05
2023-05-05T08:16:02.629Z,20.13
2023-05-05T08:16:42.583Z,20.26
2023-05-05T08:25:21.971Z,20.22
2023-05-05T08:25:36.601Z,21.00
2023-05-05T08:30:10.878Z,21.08
2023-05-05T08:43:48.019Z,21.21
2023-05-05T08:44:48.956Z,21.26
2023-05-05T08:45:48.896Z,21.36
2023-05-05T08:46:50.142Z,21.53
2023-05-05T08:47:56.182Z,21.64
2023-05-05T08:48:49.565Z,21.67
2023-05-05T08:49:51.490Z,21.70
2023-05-05T08:57:17.138Z,21.89
2023-05-05T08:58:17.548Z,21.91
2023-05-05T08:59:22.380Z,21.96
2023-05-05T09:00:38.904Z,22.04
2023-05-05T09:01:41.465Z,22.14
2023-05-05T09:09:53.229Z,22.20
2023-05-05T09:10:01.474Z,22.66
2023-05-05T09:10:58.636Z,22.45
2023-05-05T09:12:08.690Z,22.49
2023-05-05T09:12:59.666Z,22.54
2023-05-05T09:13:59.594Z,22.70
2023-05-05T09:15:09.672Z,22.82
2023-05-05T09:16:35.169Z,22.72
2023-05-05T09:18:26.208Z,22.69
2023-05-05T09:19:16.232Z,22.78
2023-05-05T09:20:22.205Z,22.88
2023-05-05T09:51:17.038Z,23.74
2023-05-05T09:51:22.470Z,23.78
2023-05-05T09:52:22.360Z,23.99
2023-05-05T09:53:22.383Z,24.18
2023-05-05T09:54:22.359Z,24.44
2023-05-05T09:55:22.381Z,24.66
2023-05-05T09:56:22.641Z,24.64
2023-05-05T09:57:22.927Z,24.52
2023-05-05T09:58:22.957Z,24.14
2023-05-05T09:59:22.331Z,24.34
2023-05-05T10:00:22.339Z,24.64
2023-05-05T10:01:28.489Z,24.64
2023-05-05T10:08:14.635Z,24.83
2023-05-05T10:12:49.262Z,24.70
2023-05-05T10:13:37.995Z,24.42
2023-05-05T10:50:07.955Z,25.72
2023-05-05T10:51:23.962Z,25.72
2023-05-05T10:56:30.331Z,25.69
2023-05-05T10:56:37.943Z,25.29
2023-05-05T10:57:37.097Z,25.38
2023-05-05T10:58:59.282Z,25.29
2023-05-05T10:59:36.665Z,25.22
2023-05-05T11:28:15.892Z,25.39
2023-05-05T11:29:11.658Z,24.86
2023-05-05T11:30:13.562Z,24.64
2023-05-05T11:31:11.685Z,24.79
2023-05-05T11:32:11.776Z,24.92
2023-05-05T11:33:11.603Z,25.07
2023-05-05T11:34:11.615Z,25.19
2023-05-05T11:35:12.246Z,25.14
2023-05-05T11:36:20.998Z,25.23
2023-05-05T11:37:11.540Z,25.24
2023-05-05T11:38:12.487Z,25.19
2023-05-05T11:39:18.350Z,25.07
2023-05-05T11:40:14.509Z,25.04
2023-05-05T11:41:11.555Z,25.30
2023-05-05T11:42:11.635Z,25.35
2023-05-05T11:43:26.357Z,25.31
2023-05-05T11:44:12.357Z,25.16
2023-05-05T11:45:11.537Z,25.34
2023-05-05T11:46:19.393Z,25.59
2023-05-05T11:47:11.541Z,25.82
2023-05-05T11:48:11.581Z,26.08
2023-05-05T11:52:42.768Z,26.35
2023-05-05T11:53:42.743Z,26.23
2023-05-05T11:54:43.030Z,26.29
2023-05-05T11:55:46.309Z,26.46
2023-05-05T11:56:42.537Z,26.29
2023-05-05T11:57:44.088Z,25.86
2023-05-05T11:58:43.564Z,25.44
2023-05-05T11:59:48.392Z,25.12
2023-05-05T12:00:43.710Z,25.22
2023-05-05T12:01:46.045Z,25.54
2023-05-05T12:02:42.743Z,25.83
2023-05-05T12:03:42.632Z,26.08
2023-05-05T12:04:44.433Z,26.09
2023-05-05T12:05:43.328Z,26.23
2023-05-05T12:06:42.793Z,26.12
2023-05-05T12:07:42.425Z,26.31
2023-05-05T12:08:42.700Z,26.27
2023-05-05T12:09:42.422Z,26.27
2023-05-05T12:10:43.054Z,26.34
2023-05-05T12:11:42.340Z,26.36
2023-05-05T12:12:42.569Z,26.35
2023-05-05T12:13:43.578Z,26.28
2023-05-05T12:14:42.446Z,25.91
2023-05-05T12:15:50.008Z,26.06
2023-05-05T12:16:42.334Z,26.21
2023-05-05T12:17:50.149Z,26.31
2023-05-05T12:18:42.297Z,26.36
2023-05-05T12:19:43.727Z,26.46
2023-05-05T12:20:42.329Z,26.35
2023-05-05T12:21:42.439Z,26.27
2023-05-05T12:22:43.229Z,26.12
2023-05-05T12:23:42.331Z,26.20
2023-05-05T12:24:42.201Z,25.89
2023-05-05T12:25:42.215Z,26.12
2023-05-05T12:26:42.174Z,26.23
2023-05-05T12:27:42.963Z,26.06
2023-05-05T12:28:42.294Z,25.79
2023-05-05T12:29:42.222Z,25.90
2023-05-05T12:30:42.141Z,26.09
2023-05-05T12:31:42.176Z,26.16
2023-05-05T12:32:42.188Z,26.16
2023-05-05T12:33:42.104Z,25.60
2023-05-05T12:34:42.084Z,25.56
2023-05-05T12:35:50.096Z,25.82
2023-05-05T12:36:42.090Z,26.04
2023-05-05T12:37:42.655Z,26.21
2023-05-05T12:38:42.079Z,26.06
2023-05-05T12:39:42.025Z,26.12
2023-05-05T12:40:42.087Z,25.94
2023-05-05T12:41:48.600Z,25.94
2023-05-05T12:42:49.619Z,26.06
2023-05-05T12:46:48.031Z,26.03
2023-05-05T12:47:49.054Z,26.09
2023-05-05T12:48:48.949Z,26.24
2023-05-05T12:49:49.196Z,26.41
2023-05-05T12:50:48.956Z,26.51
2023-05-05T12:51:48.940Z,26.64
2023-05-05T12:52:48.930Z,26.50
2023-05-05T12:53:48.946Z,26.38
2023-05-05T12:54:48.884Z,26.59
2023-05-05T12:55:48.935Z,26.84
2023-05-05T12:56:48.852Z,27.24
2023-05-05T12:57:48.839Z,27.24
2023-05-05T12:58:56.345Z,27.30
2023-05-05T12:59:51.190Z,27.43
2023-05-05T13:00:50.387Z,27.42
2023-05-05T13:01:48.997Z,27.39
2023-05-05T13:02:48.926Z,27.49
2023-05-05T13:03:48.923Z,27.33
2023-05-05T13:04:48.758Z,27.18
2023-05-05T13:05:48.751Z,27.01
2023-05-05T13:06:49.253Z,27.01
2023-05-05T13:07:48.744Z,27.15
2023-05-05T13:08:49.301Z,27.18
2023-05-05T13:09:49.202Z,27.21
2023-05-05T13:10:49.046Z,27.25
2023-05-05T13:11:48.675Z,27.30
2023-05-05T13:12:48.720Z,27.33
2023-05-05T13:13:48.658Z,27.27
2023-05-05T13:14:48.723Z,27.24
2023-05-05T13:15:48.649Z,27.23
2023-05-05T13:16:48.668Z,26.87
2023-05-05T13:17:48.726Z,26.93
2023-05-05T13:18:48.675Z,26.96
2023-05-05T13:19:48.659Z,26.90
2023-05-05T13:20:48.614Z,27.28
2023-05-05T13:21:48.594Z,27.35
2023-05-05T13:22:48.908Z,27.53
2023-05-05T13:23:49.042Z,27.69
2023-05-05T13:24:52.182Z,28.01
2023-05-05T13:25:48.639Z,28.08
2023-05-05T13:26:48.549Z,27.69
2023-05-05T13:27:48.518Z,27.53
2023-05-05T13:28:55.267Z,27.50
2023-05-05T13:29:48.749Z,27.66
2023-05-05T13:30:48.516Z,27.15
2023-05-05T13:31:48.984Z,27.34
2023-05-05T13:32:48.495Z,27.15
2023-05-05T13:33:48.501Z,26.96
2023-05-05T13:34:55.263Z,26.65
2023-05-05T13:35:56.294Z,26.35
2023-05-05T13:36:48.450Z,26.06
2023-05-05T13:37:55.313Z,26.06
2023-05-05T13:38:48.423Z,26.21
2023-05-05T13:39:48.401Z,26.16
2023-05-05T13:40:55.355Z,26.21
2023-05-05T13:41:48.397Z,26.13
2023-05-05T13:42:48.377Z,26.21
2023-05-05T13:43:55.359Z,26.36
2023-05-05T13:44:48.380Z,26.71
2023-05-05T13:45:48.962Z,26.78
2023-05-05T13:46:48.410Z,26.87
2023-05-05T13:47:48.380Z,27.18
2023-05-05T13:48:56.620Z,27.31
2023-05-05T13:49:49.333Z,27.50
2023-05-05T13:50:48.290Z,27.62
2023-05-05T13:51:48.310Z,27.53
2023-05-05T13:52:57.873Z,27.66
2023-05-05T13:53:48.267Z,27.93
2023-05-05T13:54:48.267Z,28.20
2023-05-05T13:57:13.180Z,28.55
2023-05-05T13:58:14.199Z,27.96
2023-05-05T14:00:29.522Z,27.96
2023-05-05T14:01:37.578Z,27.95
2023-05-05T14:02:30.507Z,28.45
2023-05-05T14:03:30.517Z,28.57
2023-05-05T14:04:30.561Z,28.21
2023-05-05T14:05:38.814Z,27.88
2023-05-05T14:06:40.434Z,27.46
2023-05-05T14:07:30.434Z,27.21
2023-05-05T14:08:39.334Z,26.81
2023-05-05T14:09:30.473Z,26.69
2023-05-05T14:10:30.856Z,26.60
2023-05-05T14:11:30.390Z,26.59
2023-05-05T14:12:30.399Z,26.64
2023-05-05T14:13:39.343Z,26.71
2023-05-05T14:14:30.408Z,26.78
2023-05-05T14:17:50.307Z,26.61
2023-05-05T14:20:47.742Z,26.76
2023-05-05T14:21:48.728Z,27.49
2023-05-05T14:22:58.136Z,27.72
2023-05-05T14:23:49.228Z,28.01
2023-05-05T14:24:48.669Z,27.90
2023-05-05T14:26:00.723Z,27.46
2023-05-05T14:26:59.651Z,26.93
2023-05-05T14:27:48.656Z,26.72
2023-05-05T14:28:49.914Z,26.36
2023-05-05T14:30:00.665Z,26.35
2023-05-05T14:30:48.608Z,26.06
2023-05-05T14:31:48.613Z,25.91
2023-05-05T14:32:48.617Z,25.93
2023-05-05T14:33:48.605Z,25.86
2023-05-05T14:34:50.455Z,25.93
2023-05-05T14:35:48.550Z,25.83
2023-05-05T14:38:03.917Z,25.26
2023-05-05T14:39:04.917Z,25.16
2023-05-05T14:40:05.886Z,25.26
2023-05-05T14:41:04.869Z,24.99
2023-05-05T14:42:05.173Z,24.89
2023-05-05T14:43:04.875Z,24.90
2023-05-05T14:44:05.166Z,24.77
2023-05-05T14:45:04.806Z,24.51
2023-05-05T14:46:04.858Z,24.37
2023-05-05T14:47:05.729Z,24.23
2023-05-05T14:48:04.790Z,24.31
2023-05-05T14:49:04.800Z,24.37
2023-05-05T14:50:04.842Z,24.48
2023-05-05T14:51:19.653Z,24.52
2023-05-05T14:52:05.587Z,24.42
2023-05-05T14:53:06.156Z,24.46
2023-05-05T14:54:07.424Z,24.51
2023-05-05T14:55:04.722Z,24.46
2023-05-05T14:56:04.702Z,24.45
2023-05-05T14:58:20.034Z,24.29
2023-05-05T14:59:21.053Z,24.30
2023-05-05T15:00:21.017Z,24.27
2023-05-05T15:01:27.829Z,24.15
2023-05-05T15:02:21.138Z,24.09
2023-05-05T15:03:27.973Z,24.12
2023-05-05T15:04:27.854Z,24.04
2023-05-05T15:05:20.943Z,23.99
2023-05-05T15:06:20.963Z,23.78
2023-05-05T15:07:20.936Z,23.79
2023-05-05T15:08:20.923Z,23.86
2023-05-05T15:09:29.335Z,23.87
2023-05-05T15:10:21.973Z,23.69
2023-05-05T15:11:20.930Z,22.82
2023-05-05T15:12:20.920Z,22.30
2023-05-05T15:13:21.062Z,22.06
2023-05-05T15:14:20.878Z,21.96
2023-05-05T15:15:21.390Z,21.79
2023-05-05T15:16:20.955Z,21.67
2023-05-05T15:17:20.910Z,21.53
2023-05-05T15:18:21.777Z,21.49
2023-05-05T15:19:20.802Z,21.40
2023-05-05T15:20:20.837Z,21.28
2023-05-05T15:21:29.784Z,20.91
2023-05-05T15:22:20.794Z,20.76
2023-05-05T15:23:20.772Z,20.56
2023-05-05T15:24:20.859Z,20.69
2023-05-05T15:25:20.752Z,20.66
2023-05-05T15:26:20.744Z,20.68
2023-05-05T15:27:20.756Z,20.51
2023-05-05T15:28:20.726Z,20.38
2023-05-05T15:29:20.694Z,20.35
2023-05-05T15:30:30.379Z,20.41
2023-05-05T15:31:20.714Z,20.58
2023-05-05T15:32:20.662Z,20.53
2023-05-05T15:33:20.665Z,20.64
2023-05-05T15:34:20.658Z,20.81
2023-05-05T15:35:31.401Z,20.90
2023-05-05T15:36:20.658Z,20.90
2023-05-05T15:38:39.950Z,21.12
2023-05-05T15:39:40.948Z,21.22
2023-05-05T15:40:50.053Z,21.31
2023-05-05T15:41:40.924Z,21.37
2023-05-05T15:42:40.924Z,21.37
2023-05-05T15:43:40.903Z,21.45
2023-05-05T15:44:40.928Z,21.40
2023-05-05T15:45:40.889Z,21.48
2023-05-05T15:46:40.937Z,21.53
2023-05-05T15:47:40.920Z,21.49
2023-05-05T15:48:40.861Z,21.55
2023-05-05T15:49:40.857Z,21.43
2023-05-05T15:50:41.261Z,21.28
2023-05-05T15:51:40.860Z,21.16
2023-05-05T15:52:53.743Z,21.08
2023-05-05T15:53:40.812Z,21.05
2023-05-05T15:54:40.802Z,20.93
2023-05-05T15:55:40.783Z,20.90
2023-05-05T15:56:50.750Z,20.76
2023-05-05T15:57:40.753Z,20.56
2023-05-05T15:58:40.795Z,20.51
2023-05-05T15:59:40.725Z,20.40
2023-05-05T16:00:40.719Z,20.40
2023-05-05T16:01:47.461Z,20.34
2023-05-05T16:02:47.353Z,20.38
2023-05-05T16:03:40.697Z,20.46
2023-05-05T16:04:40.693Z,20.42
2023-05-05T16:05:40.662Z,20.34
2023-05-05T16:06:47.340Z,20.30
2023-05-05T16:07:40.648Z,20.19
2023-05-05T16:08:40.650Z,20.01
2023-05-05T16:09:40.891Z,19.86
2023-05-05T16:10:46.650Z,19.61
2023-05-05T16:11:47.333Z,19.31
2023-05-05T16:12:40.637Z,19.10
2023-05-05T16:13:40.580Z,18.96
2023-05-05T16:14:51.581Z,18.79
2023-05-05T16:15:40.613Z,18.74
2023-05-05T16:16:48.903Z,18.60
2023-05-05T16:17:40.578Z,18.46
2023-05-05T16:18:40.549Z,18.19
2023-05-05T16:19:40.509Z,18.05
2023-05-05T16:20:40.522Z,18.04
2023-05-05T16:21:40.509Z,18.02
2023-05-05T16:22:40.480Z,17.95
2023-05-05T16:23:40.473Z,18.05
2023-05-05T16:24:48.872Z,18.13
2023-05-05T16:25:51.413Z,18.23
2023-05-05T16:26:40.926Z,18.26
2023-05-05T16:27:47.441Z,18.20
2023-05-05T16:28:40.418Z,18.13
2023-05-05T16:29:40.424Z,18.11
2023-05-05T16:30:40.434Z,18.10
2023-05-05T16:31:40.421Z,18.09
2023-05-05T16:32:47.003Z,18.11
2023-05-05T16:33:40.348Z,18.13
2023-05-05T16:34:47.971Z,18.16
2023-05-05T16:35:40.385Z,18.14
2023-05-05T16:36:40.882Z,18.19
2023-05-05T16:37:40.332Z,18.21
2023-05-05T16:38:40.344Z,18.25
2023-05-05T16:41:18.553Z,18.32
2023-05-05T16:42:26.492Z,18.34
2023-05-05T16:43:19.767Z,18.31
2023-05-05T16:44:26.626Z,18.32
2023-05-05T16:45:19.518Z,18.38
2023-05-05T16:46:19.573Z,18.42
2023-05-05T16:47:26.479Z,18.46
2023-05-05T16:48:19.463Z,18.47
2023-05-05T16:49:19.447Z,18.49
2023-05-05T16:50:19.435Z,18.42
2023-05-05T16:51:19.412Z,18.36
2023-05-05T16:52:19.437Z,18.35
2023-05-05T16:53:19.397Z,18.35
2023-05-05T16:54:19.390Z,18.34
2023-05-05T16:55:19.423Z,18.31
2023-05-05T16:56:19.373Z,18.32
2023-05-05T16:57:19.341Z,18.35
2023-05-05T16:58:25.981Z,18.35
2023-05-05T16:59:26.011Z,18.42
2023-05-05T17:00:19.336Z,18.47
2023-05-05T17:01:19.369Z,18.46
2023-05-05T17:02:19.499Z,18.49
2023-05-05T17:03:19.448Z,18.53
2023-05-05T17:04:19.278Z,18.49
2023-05-05T17:05:19.328Z,18.60
2023-05-05T17:06:19.345Z,18.57
2023-05-05T17:07:19.257Z,18.56
2023-05-05T17:08:26.043Z,18.60
2023-05-05T17:09:19.233Z,18.60
2023-05-05T17:10:19.210Z,18.62
2023-05-05T17:11:19.273Z,18.62
2023-05-05T17:12:19.236Z,18.65
2023-05-05T17:13:19.323Z,18.74
2023-05-05T17:14:19.201Z,18.83
2023-05-05T17:15:19.533Z,18.94
2023-05-05T17:16:19.249Z,18.93
2023-05-05T17:17:20.195Z,18.99
2023-05-05T17:18:19.177Z,19.09
2023-05-05T17:19:19.135Z,19.16
2023-05-05T17:20:19.160Z,19.25
2023-05-05T17:21:19.088Z,19.28
2023-05-05T17:22:19.625Z,19.31
2023-05-05T17:23:20.023Z,19.23
2023-05-05T17:24:19.126Z,19.06
2023-05-05T17:25:19.083Z,19.05